Terminal Aerodrome Forecast
Issued by NWS

Home | Current Version | Previous Version | Text Only | Print | Product List | Glossary On
Versions: 1 2 3 4 5 6 7 8 9 10 11 12 13 14 15 16 17
000
FTUS43 KAPX 292333
TAFPLN
TAF
KPLN 292333Z 3000/3024 26011G19KT P6SM SKC
     FM300200 26008KT P6SM SCT070 WS007/26032KT
     FM300400 26008KT P6SM BKN070 WS007/26032KT
     FM301100 27008KT P6SM SCT070 WS011/28030KT
     FM301400 28013G20KT P6SM FEW050
     FM301800 27014G22KT P6SM BKN035
     FM302100 30012G20KT P6SM BKN035=

USA.gov is the U.S. government's official web portal to all federal, state and local government web resources and services.